createdAt,value
2022-08-22T00:00:53.433Z,6.40
2022-08-22T00:03:33.467Z,8.10
2022-08-22T00:06:13.668Z,5.90
2022-08-22T00:09:18.443Z,8.95
2022-08-22T00:12:28.627Z,7.22
2022-08-22T00:15:42.638Z,9.85
2022-08-22T00:18:34.984Z,3.38
2022-08-22T00:21:08.596Z,6.75
2022-08-22T00:23:40.947Z,4.15
2022-08-22T00:26:29.368Z,4.50
2022-08-22T00:29:04.716Z,8.90
2022-08-22T00:31:46.234Z,6.90
2022-08-22T00:34:24.278Z,8.40
2022-08-22T00:37:09.537Z,6.20
2022-08-22T00:39:48.416Z,10.57
2022-08-22T00:42:42.084Z,9.30
2022-08-22T00:45:32.173Z,7.25
2022-08-22T00:48:17.377Z,8.18
2022-08-22T00:51:15.505Z,8.43
2022-08-22T00:53:48.733Z,8.32
2022-08-22T00:56:35.860Z,7.95
2022-08-22T00:59:23.322Z,8.10
2022-08-22T01:02:14.627Z,7.75
2022-08-22T01:04:49.611Z,7.55
2022-08-22T01:07:48.372Z,7.45
2022-08-22T01:10:35.341Z,6.15
2022-08-22T01:13:34.483Z,7.40
2022-08-22T01:16:27.264Z,8.05
2022-08-22T01:19:09.027Z,9.43
2022-08-22T01:22:11.050Z,9.57
2022-08-22T01:25:18.339Z,7.22
2022-08-22T01:28:07.321Z,9.15
2022-08-22T01:31:06.753Z,11.00
2022-08-22T01:34:16.470Z,6.55
2022-08-22T01:37:07.510Z,11.93
2022-08-22T01:40:01.419Z,8.05
2022-08-22T01:42:34.554Z,10.05
2022-08-22T01:45:14.771Z,8.75
2022-08-22T01:47:41.415Z,5.68
2022-08-22T01:50:32.708Z,8.85
2022-08-22T01:53:30.999Z,9.27
2022-08-22T01:56:03.832Z,11.05
2022-08-22T01:58:33.406Z,7.97
2022-08-22T02:01:31.118Z,8.10
2022-08-22T02:04:18.207Z,6.45
2022-08-22T02:07:02.455Z,7.97
2022-08-22T02:09:46.265Z,9.25
2022-08-22T02:12:36.214Z,8.35
2022-08-22T02:15:18.876Z,8.13
2022-08-22T02:18:15.494Z,7.85
2022-08-22T02:20:48.637Z,6.68
2022-08-22T02:23:31.943Z,10.05
2022-08-22T02:26:01.492Z,7.28
2022-08-22T02:28:57.938Z,8.15
2022-08-22T02:31:40.057Z,7.75
2022-08-22T02:34:34.579Z,9.60
2022-08-22T02:37:15.075Z,9.63
2022-08-22T02:39:57.000Z,9.40
2022-08-22T02:42:46.209Z,8.88
2022-08-22T02:45:25.288Z,8.65
2022-08-22T02:48:17.806Z,7.75
2022-08-22T02:50:51.842Z,5.53
2022-08-22T02:53:47.491Z,6.72
2022-08-22T02:56:23.613Z,6.68
2022-08-22T02:59:17.460Z,9.82
2022-08-22T03:01:46.623Z,6.82
2022-08-22T03:04:22.285Z,6.90
2022-08-22T03:07:08.113Z,5.35
2022-08-22T03:09:41.340Z,9.20
2022-08-22T03:12:32.129Z,7.55
2022-08-22T03:15:02.039Z,9.13
2022-08-22T03:17:34.559Z,9.95
2022-08-22T03:20:11.521Z,8.30
2022-08-22T03:22:59.977Z,10.60
2022-08-22T03:25:30.910Z,8.77
2022-08-22T03:28:12.182Z,8.30
2022-08-22T03:31:07.032Z,9.80
2022-08-22T03:33:33.804Z,8.65
2022-08-22T03:36:11.464Z,10.73
2022-08-22T03:38:48.144Z,9.02
2022-08-22T03:41:55.082Z,8.10
2022-08-22T03:44:37.785Z,9.20
2022-08-22T03:47:28.631Z,7.07
2022-08-22T03:50:31.388Z,6.47
2022-08-22T03:53:16.260Z,6.85
2022-08-22T03:56:10.604Z,6.10
2022-08-22T03:59:01.411Z,9.70
2022-08-22T04:01:52.468Z,7.50
2022-08-22T04:04:24.824Z,6.75
2022-08-22T04:07:15.815Z,8.13
2022-08-22T04:10:03.384Z,11.65
2022-08-22T04:12:42.518Z,8.55
2022-08-22T04:15:40.632Z,8.35
2022-08-22T04:18:25.978Z,10.00
2022-08-22T04:21:32.313Z,9.45
2022-08-22T04:24:13.630Z,9.00
2022-08-22T04:26:49.753Z,10.07
2022-08-22T04:29:36.989Z,8.95
2022-08-22T04:32:36.370Z,6.95
2022-08-22T04:35:11.889Z,7.63
2022-08-22T04:37:57.031Z,6.78
2022-08-22T04:40:50.207Z,8.35
2022-08-22T04:43:39.499Z,10.18
2022-08-22T04:46:11.524Z,8.88
2022-08-22T04:48:52.965Z,10.05
2022-08-22T04:51:27.276Z,7.70
2022-08-22T04:54:15.369Z,7.45
2022-08-22T04:57:21.207Z,6.68
2022-08-22T04:59:49.704Z,10.48
2022-08-22T05:02:24.020Z,8.02
2022-08-22T05:05:19.250Z,8.65
2022-08-22T05:07:59.585Z,9.63
2022-08-22T05:10:50.129Z,10.02
2022-08-22T05:13:25.386Z,9.38
2022-08-22T05:15:57.316Z,9.82
2022-08-22T05:18:29.783Z,9.95
2022-08-22T05:21:01.571Z,12.93
2022-08-22T05:23:39.575Z,9.75
2022-08-22T05:26:08.080Z,11.13
2022-08-22T05:28:38.600Z,9.98
2022-08-22T05:31:20.095Z,14.32
2022-08-22T05:33:57.805Z,8.70
2022-08-22T05:36:45.386Z,10.13
2022-08-22T05:39:17.459Z,13.85
2022-08-22T05:41:44.657Z,13.40
2022-08-22T05:44:26.929Z,10.13
2022-08-22T05:47:12.189Z,12.23
2022-08-22T05:50:02.376Z,8.02
2022-08-22T05:52:59.825Z,9.85
2022-08-22T05:55:33.085Z,6.03
2022-08-22T05:58:17.728Z,7.88
2022-08-22T06:00:48.711Z,11.07
2022-08-22T06:03:27.764Z,7.78
2022-08-22T06:05:59.353Z,7.70
2022-08-22T06:08:34.440Z,5.93
2022-08-22T06:11:14.512Z,7.03
2022-08-22T06:13:52.927Z,8.90
2022-08-22T06:16:24.773Z,13.80
2022-08-22T06:18:52.617Z,7.90
2022-08-22T06:21:26.171Z,8.65
2022-08-22T06:23:57.620Z,5.47
2022-08-22T06:26:34.632Z,8.95
2022-08-22T06:29:02.610Z,6.65
2022-08-22T06:31:31.935Z,7.07
2022-08-22T06:34:08.668Z,9.98
2022-08-22T06:36:38.708Z,4.60
2022-08-22T06:39:29.412Z,8.15
2022-08-22T06:42:15.836Z,6.25
2022-08-22T06:45:06.900Z,7.28
2022-08-22T06:47:49.875Z,9.25
2022-08-22T06:50:35.082Z,8.63
2022-08-22T06:53:13.036Z,6.53
2022-08-22T06:55:46.326Z,8.93
2022-08-22T06:58:21.684Z,6.45
2022-08-22T07:01:05.732Z,6.82
2022-08-22T07:03:43.438Z,5.85
2022-08-22T07:06:18.812Z,7.28
2022-08-22T07:08:46.457Z,6.20
2022-08-22T07:11:23.452Z,5.43
2022-08-22T07:14:06.427Z,5.30
2022-08-22T07:16:52.042Z,3.88
2022-08-22T07:19:29.345Z,6.82
2022-08-22T07:21:57.407Z,6.05
2022-08-22T07:24:32.657Z,5.22
2022-08-22T07:27:38.349Z,6.10
2022-08-22T07:30:14.026Z,6.65
2022-08-22T07:32:49.187Z,5.28
2022-08-22T07:35:24.087Z,5.18
2022-08-22T07:41:20.032Z,6.88
2022-08-22T07:44:22.704Z,6.78
2022-08-22T07:46:58.674Z,5.13
2022-08-22T07:49:36.126Z,6.22
2022-08-22T07:52:11.371Z,7.28
2022-08-22T07:54:44.822Z,6.80
2022-08-22T07:57:34.442Z,4.47
2022-08-22T08:00:05.232Z,3.90
2022-08-22T08:02:32.262Z,5.22
2022-08-22T08:05:00.500Z,5.50
2022-08-22T08:07:32.750Z,5.28
2022-08-22T08:10:11.150Z,5.93
2022-08-22T08:12:56.156Z,5.53
2022-08-22T08:15:32.369Z,4.95
2022-08-22T08:18:05.848Z,6.03
2022-08-22T08:20:35.765Z,5.13
2022-08-22T08:23:05.422Z,4.03
2022-08-22T08:25:36.372Z,6.28
2022-08-22T08:28:23.168Z,3.30
2022-08-22T08:31:01.729Z,6.07
2022-08-22T08:33:32.193Z,4.35
2022-08-22T08:36:37.862Z,4.15
2022-08-22T08:39:20.835Z,4.60
2022-08-22T08:42:09.326Z,3.63
2022-08-22T08:45:03.788Z,4.63
2022-08-22T08:47:36.337Z,3.88
2022-08-22T08:50:34.564Z,3.95
2022-08-22T08:53:26.988Z,6.13
2022-08-22T08:56:20.595Z,4.32
2022-08-22T08:58:59.872Z,4.25
2022-08-22T09:02:04.446Z,4.53
2022-08-22T09:04:49.495Z,4.40
2022-08-22T09:07:41.261Z,4.53
2022-08-22T09:10:32.146Z,4.18
2022-08-22T09:13:14.390Z,4.05
2022-08-22T09:16:05.769Z,3.85
2022-08-22T09:18:46.855Z,3.58
2022-08-22T09:21:32.179Z,4.10
2022-08-22T09:24:35.167Z,5.47
2022-08-22T09:27:08.976Z,3.28
2022-08-22T09:29:54.654Z,3.78
2022-08-22T09:32:44.426Z,3.65
2022-08-22T09:35:49.596Z,2.45
2022-08-22T09:38:31.236Z,5.00
2022-08-22T09:41:44.361Z,4.10
2022-08-22T09:44:31.193Z,3.67
2022-08-22T09:51:08.322Z,4.75
2022-08-22T09:53:50.404Z,4.25
2022-08-22T09:56:33.736Z,6.70
2022-08-22T09:59:09.870Z,3.80
2022-08-22T10:01:58.167Z,4.40
2022-08-22T10:04:51.545Z,4.07
2022-08-22T10:07:33.429Z,5.82
2022-08-22T10:10:26.284Z,4.40
2022-08-22T10:13:20.923Z,4.88
2022-08-22T10:16:11.716Z,4.63
2022-08-22T10:19:00.524Z,3.45
2022-08-22T10:21:46.432Z,4.63
2022-08-22T10:24:44.039Z,4.25
2022-08-22T10:27:40.226Z,3.80
2022-08-22T10:30:13.371Z,2.78
2022-08-22T10:33:01.682Z,4.93
2022-08-22T10:35:39.738Z,3.13
2022-08-22T10:38:16.531Z,5.90
2022-08-22T10:40:55.735Z,2.78
2022-08-22T10:43:56.545Z,2.55
2022-08-22T10:46:42.168Z,4.80
2022-08-22T10:49:19.525Z,4.18
2022-08-22T10:52:03.836Z,3.80
2022-08-22T10:54:51.164Z,2.65
2022-08-22T10:57:44.119Z,2.90
2022-08-22T11:00:30.232Z,3.13
2022-08-22T11:03:24.933Z,2.10
2022-08-22T11:05:58.011Z,4.30
2022-08-22T11:08:50.948Z,3.40
2022-08-22T11:11:23.481Z,4.25
2022-08-22T11:14:21.038Z,5.00
2022-08-22T11:17:28.072Z,3.72
2022-08-22T11:20:08.973Z,4.72
2022-08-22T11:23:06.686Z,2.55
2022-08-22T11:25:44.045Z,3.92
2022-08-22T11:28:19.667Z,4.40
2022-08-22T11:30:57.785Z,3.38
2022-08-22T11:34:00.808Z,3.53
2022-08-22T11:36:51.514Z,3.65
2022-08-22T11:39:33.720Z,4.70
2022-08-22T11:42:31.160Z,3.25
2022-08-22T11:45:00.980Z,3.97
2022-08-22T11:47:32.976Z,6.07
2022-08-22T11:50:23.415Z,3.13
2022-08-22T11:53:20.192Z,3.45
2022-08-22T11:55:53.728Z,2.83
2022-08-22T11:58:32.168Z,2.42
2022-08-22T12:01:04.580Z,1.95
2022-08-22T12:03:43.088Z,4.22
2022-08-22T12:06:46.831Z,3.58
2022-08-22T12:09:33.753Z,1.95
2022-08-22T12:12:13.878Z,3.28
2022-08-22T12:15:05.523Z,3.67
2022-08-22T12:18:01.915Z,3.45
2022-08-22T12:21:11.322Z,3.38
2022-08-22T12:23:52.679Z,3.10
2022-08-22T12:27:00.444Z,2.42
2022-08-22T12:29:47.168Z,3.13
2022-08-22T12:32:49.102Z,3.63
2022-08-22T12:35:37.083Z,5.60
2022-08-22T12:38:34.834Z,3.97
2022-08-22T12:41:27.865Z,3.58
2022-08-22T12:44:21.220Z,2.55
2022-08-22T12:47:12.042Z,2.80
2022-08-22T12:50:13.095Z,1.75
2022-08-22T12:52:56.295Z,1.85
2022-08-22T12:55:48.745Z,3.47
2022-08-22T12:58:34.576Z,2.17
2022-08-22T13:01:06.624Z,3.13
2022-08-22T13:03:59.223Z,3.78
2022-08-22T13:06:35.193Z,2.90
2022-08-22T13:09:11.108Z,1.58
2022-08-22T13:11:40.516Z,2.47
2022-08-22T13:14:09.970Z,3.30
2022-08-22T13:16:49.133Z,3.97
2022-08-22T13:19:22.219Z,2.78
2022-08-22T13:21:56.805Z,2.25
2022-08-22T13:24:52.345Z,2.22
2022-08-22T13:27:40.215Z,3.22
2022-08-22T13:30:37.534Z,3.05
2022-08-22T13:33:04.436Z,3.97
2022-08-22T13:35:51.971Z,2.72
2022-08-22T13:38:25.806Z,2.63
2022-08-22T13:40:54.737Z,3.15
2022-08-22T13:43:25.208Z,2.47
2022-08-22T13:46:03.084Z,2.83
2022-08-22T13:48:50.410Z,5.18
2022-08-22T13:51:46.529Z,3.60
2022-08-22T13:54:16.178Z,3.03
2022-08-22T13:56:54.949Z,1.98
2022-08-22T13:59:52.527Z,4.32
2022-08-22T14:02:31.001Z,2.70
2022-08-22T14:05:09.192Z,3.40
2022-08-22T14:07:58.242Z,3.67
2022-08-22T14:10:31.428Z,2.90
2022-08-22T14:12:58.000Z,3.85
2022-08-22T14:15:32.298Z,2.83
2022-08-22T14:18:30.405Z,3.78
2022-08-22T14:21:40.920Z,3.17
2022-08-22T14:24:25.730Z,3.47
2022-08-22T14:27:35.546Z,3.88
2022-08-22T14:30:17.325Z,3.40
2022-08-22T14:32:57.633Z,3.40
2022-08-22T14:35:35.415Z,3.05
2022-08-22T14:38:35.090Z,3.63
2022-08-22T14:41:05.277Z,3.45
2022-08-22T14:43:31.965Z,3.55
2022-08-22T14:46:09.720Z,2.30
2022-08-22T14:48:44.341Z,3.30
2022-08-22T14:51:21.373Z,2.75
2022-08-22T14:53:50.056Z,2.70
2022-08-22T14:56:24.204Z,3.53
2022-08-22T14:59:06.630Z,2.10
2022-08-22T15:01:51.286Z,3.97
2022-08-22T15:04:37.213Z,3.70
2022-08-22T15:07:06.153Z,2.28
2022-08-22T15:09:58.311Z,2.10
2022-08-22T15:12:33.341Z,2.90
2022-08-22T15:15:05.631Z,5.97
2022-08-22T15:17:37.094Z,2.58
2022-08-22T15:20:28.482Z,2.63
2022-08-22T15:23:14.890Z,3.40
2022-08-22T15:25:46.887Z,3.13
2022-08-22T15:28:20.067Z,3.20
2022-08-22T15:30:58.666Z,5.28
2022-08-22T15:33:32.184Z,2.85
2022-08-22T15:36:19.902Z,2.75
2022-08-22T15:38:55.791Z,1.80
2022-08-22T15:41:31.464Z,4.10
2022-08-22T15:44:32.216Z,2.85
2022-08-22T15:47:04.581Z,2.78
2022-08-22T15:49:36.608Z,4.22
2022-08-22T15:52:11.086Z,3.30
2022-08-22T15:54:57.158Z,1.73
2022-08-22T15:57:34.834Z,2.28
2022-08-22T16:00:12.036Z,4.70
2022-08-22T16:03:10.896Z,3.35
2022-08-22T16:05:41.486Z,3.38
2022-08-22T16:08:19.889Z,1.98
2022-08-22T16:11:10.050Z,3.47
2022-08-22T16:13:40.017Z,3.63
2022-08-22T16:16:12.347Z,4.43
2022-08-22T16:18:43.435Z,3.72
2022-08-22T16:21:16.571Z,2.53
2022-08-22T16:23:56.716Z,2.10
2022-08-22T16:26:29.435Z,3.85
2022-08-22T16:29:07.146Z,3.30
2022-08-22T16:31:46.099Z,2.97
2022-08-22T16:34:23.937Z,2.97
2022-08-22T16:37:12.094Z,5.43
2022-08-22T16:39:41.064Z,3.58
2022-08-22T16:42:19.369Z,3.33
2022-08-22T16:44:50.207Z,3.22
2022-08-22T16:47:42.813Z,4.00
2022-08-22T16:50:19.006Z,3.67
2022-08-22T16:53:00.791Z,4.63
2022-08-22T16:55:30.378Z,4.88
2022-08-22T16:58:19.997Z,3.22
2022-08-22T17:01:14.555Z,2.88
2022-08-22T17:04:04.532Z,4.45
2022-08-22T17:06:49.690Z,6.93
2022-08-22T17:09:34.611Z,2.58
2022-08-22T17:12:01.398Z,3.10
2022-08-22T17:15:04.370Z,2.22
2022-08-22T17:17:38.265Z,4.97
2022-08-22T17:20:19.958Z,2.88
2022-08-22T17:23:14.716Z,3.42
2022-08-22T17:25:47.091Z,3.05
2022-08-22T17:28:34.021Z,3.08
2022-08-22T17:31:08.208Z,2.95
2022-08-22T17:33:40.970Z,3.78
2022-08-22T17:36:49.176Z,3.83
2022-08-22T17:39:30.694Z,4.35
2022-08-22T17:42:00.219Z,3.92
2022-08-22T17:44:39.366Z,3.58
2022-08-22T17:47:33.795Z,4.85
2022-08-22T17:50:18.567Z,8.68
2022-08-22T17:52:51.501Z,4.13
2022-08-22T17:55:25.587Z,3.70
2022-08-22T17:58:11.614Z,3.45
2022-08-22T18:00:50.010Z,4.57
2022-08-22T18:03:38.551Z,4.30
2022-08-22T18:06:26.009Z,5.75
2022-08-22T18:09:17.271Z,4.20
2022-08-22T18:11:55.883Z,3.70
2022-08-22T18:14:36.519Z,4.47
2022-08-22T18:17:21.713Z,3.78
2022-08-22T18:20:10.217Z,5.30
2022-08-22T18:22:39.958Z,4.40
2022-08-22T18:25:19.007Z,4.65
2022-08-22T18:27:52.069Z,3.00
2022-08-22T18:30:31.258Z,4.63
2022-08-22T18:33:22.954Z,5.22
2022-08-22T18:35:59.208Z,4.68
2022-08-22T18:38:57.468Z,2.95
2022-08-22T18:41:41.527Z,4.20
2022-08-22T18:44:20.468Z,4.72
2022-08-22T18:46:52.877Z,3.33
2022-08-22T18:49:22.162Z,7.00
2022-08-22T18:52:12.521Z,2.90
2022-08-22T18:55:06.724Z,3.97
2022-08-22T18:57:51.498Z,2.67
2022-08-22T19:00:22.275Z,5.30
2022-08-22T19:03:12.691Z,3.72
2022-08-22T19:06:21.629Z,3.58
2022-08-22T19:09:17.249Z,2.83
2022-08-22T19:12:11.870Z,4.47
2022-08-22T19:15:13.482Z,3.05
2022-08-22T19:18:09.874Z,3.72
2022-08-22T19:20:57.882Z,7.72
2022-08-22T19:23:43.365Z,5.60
2022-08-22T19:26:37.904Z,5.30
2022-08-22T19:29:33.777Z,2.97
2022-08-22T19:32:12.745Z,3.05
2022-08-22T19:34:46.914Z,6.45
2022-08-22T19:37:32.436Z,6.18
2022-08-22T19:40:40.712Z,6.07
2022-08-22T19:43:35.998Z,3.10
2022-08-22T19:46:13.203Z,3.60
2022-08-22T19:48:47.516Z,4.57
2022-08-22T19:51:26.248Z,5.03
2022-08-22T20:04:44.823Z,6.68
2022-08-22T20:07:34.786Z,3.70
2022-08-22T20:10:17.956Z,3.67
2022-08-22T20:13:07.599Z,5.18
2022-08-22T20:16:13.594Z,4.40
2022-08-22T20:19:06.364Z,5.53
2022-08-22T20:21:52.451Z,5.28
2022-08-22T20:24:27.284Z,3.58
2022-08-22T20:27:13.315Z,4.00
2022-08-22T20:29:49.971Z,4.65
2022-08-22T20:32:20.414Z,3.38
2022-08-22T20:34:50.390Z,6.38
2022-08-22T20:38:02.778Z,5.38
2022-08-22T20:40:56.568Z,4.22
2022-08-22T20:43:42.583Z,8.02
2022-08-22T20:46:36.673Z,3.95
2022-08-22T20:49:05.107Z,7.07
2022-08-22T20:51:33.506Z,5.65
2022-08-22T20:54:15.630Z,3.42
2022-08-22T20:56:52.979Z,3.78
2022-08-22T20:59:25.739Z,3.08
2022-08-22T21:02:05.009Z,4.55
2022-08-22T21:04:42.642Z,4.38
2022-08-22T21:07:10.489Z,5.45
2022-08-22T21:09:55.658Z,3.95
2022-08-22T21:12:24.034Z,4.15
2022-08-22T21:14:50.727Z,3.38
2022-08-22T21:17:23.057Z,6.60
2022-08-22T21:19:50.441Z,3.80
2022-08-22T21:22:25.622Z,4.60
2022-08-22T21:24:58.807Z,3.75
2022-08-22T21:27:33.403Z,3.72
2022-08-22T21:30:02.832Z,7.38
2022-08-22T21:32:33.902Z,3.97
2022-08-22T21:35:02.434Z,4.63
2022-08-22T21:37:44.863Z,4.25
2022-08-22T21:40:32.170Z,3.67
2022-08-22T21:43:08.594Z,4.95
2022-08-22T21:45:38.222Z,3.38
2022-08-22T21:48:39.292Z,2.65
2022-08-22T21:51:24.900Z,5.45
2022-08-22T21:54:16.080Z,3.85
2022-08-22T21:56:38.394Z,3.20
2022-08-22T21:59:50.968Z,3.53
2022-08-22T22:02:50.617Z,3.22
2022-08-22T22:05:18.282Z,4.13
2022-08-22T22:07:46.963Z,4.80
2022-08-22T22:10:18.086Z,2.72
2022-08-22T22:12:47.720Z,4.70
2022-08-22T22:15:19.039Z,3.63
2022-08-22T22:17:45.997Z,5.30
2022-08-22T22:20:15.477Z,2.90
2022-08-22T22:22:46.669Z,3.75
2022-08-22T22:25:40.650Z,3.75
2022-08-22T22:28:23.312Z,3.30
2022-08-22T22:30:53.995Z,4.80
2022-08-22T22:33:34.755Z,3.83
2022-08-22T22:36:22.692Z,2.47
2022-08-22T22:38:52.337Z,4.05
2022-08-22T22:41:23.347Z,3.85
2022-08-22T22:43:50.257Z,3.38
2022-08-22T22:46:24.759Z,2.90
2022-08-22T22:48:52.028Z,3.72
2022-08-22T22:51:19.703Z,3.85
2022-08-22T22:53:47.571Z,3.47
2022-08-22T22:56:23.896Z,3.50
2022-08-22T22:59:00.605Z,5.03
2022-08-22T23:01:28.094Z,2.50
2022-08-22T23:03:58.415Z,2.45
2022-08-22T23:06:32.083Z,4.07
2022-08-22T23:08:58.785Z,3.50
2022-08-22T23:11:28.662Z,4.78
2022-08-22T23:13:56.174Z,3.15
2022-08-22T23:16:28.123Z,2.30
2022-08-22T23:18:55.516Z,3.20
2022-08-22T23:21:28.916Z,3.78
2022-08-22T23:23:58.518Z,2.97
2022-08-22T23:26:25.824Z,3.08
2022-08-22T23:28:52.769Z,4.30
2022-08-22T23:31:40.126Z,3.40
2022-08-22T23:34:17.697Z,3.78
2022-08-22T23:36:46.659Z,4.75
2022-08-22T23:39:15.607Z,4.53
2022-08-22T23:41:42.811Z,4.68
2022-08-22T23:44:13.694Z,4.45
2022-08-22T23:46:42.064Z,3.88
2022-08-22T23:49:08.762Z,4.57
2022-08-22T23:51:35.947Z,3.25
2022-08-22T23:54:03.268Z,3.50
2022-08-22T23:56:42.224Z,2.90
2022-08-22T23:59:13.375Z,4.72
